sensor_id;sensor_type;location;lat;lon;timestamp;temperature;humidity
68251;DHT22;55066;51.560;4.642;2022-09-09T00:00:54;13.94;93.75
68251;DHT22;55066;51.560;4.642;2022-09-09T00:03:27;13.91;94.02
68251;DHT22;55066;51.560;4.642;2022-09-09T00:06:14;13.95;95.87
68251;DHT22;55066;51.560;4.642;2022-09-09T00:09:06;13.89;96.32
68251;DHT22;55066;51.560;4.642;2022-09-09T00:11:54;13.70;94.17
68251;DHT22;55066;51.560;4.642;2022-09-09T00:14:37;13.75;94.10
68251;DHT22;55066;51.560;4.642;2022-09-09T00:17:11;13.82;94.71
68251;DHT22;55066;51.560;4.642;2022-09-09T00:19:43;13.71;95.88
68251;DHT22;55066;51.560;4.642;2022-09-09T00:22:19;13.91;93.58
68251;DHT22;55066;51.560;4.642;2022-09-09T00:24:48;13.79;95.36
68251;DHT22;55066;51.560;4.642;2022-09-09T00:27:31;13.91;95.05
68251;DHT22;55066;51.560;4.642;2022-09-09T00:32:46;13.98;94.06
68251;DHT22;55066;51.560;4.642;2022-09-09T00:37:46;14.05;95.03
68251;DHT22;55066;51.560;4.642;2022-09-09T00:40:24;13.89;96.23
68251;DHT22;55066;51.560;4.642;2022-09-09T00:43:21;13.98;95.85
68251;DHT22;55066;51.560;4.642;2022-09-09T00:51:19;13.84;92.45
68251;DHT22;55066;51.560;4.642;2022-09-09T01:02:27;13.97;95.60
68251;DHT22;55066;51.560;4.642;2022-09-09T01:04:53;13.95;94.24
68251;DHT22;55066;51.560;4.642;2022-09-09T01:07:20;13.92;96.00
68251;DHT22;55066;51.560;4.642;2022-09-09T01:10:07;13.88;92.40
68251;DHT22;55066;51.560;4.642;2022-09-09T01:12:42;13.89;92.93
68251;DHT22;55066;51.560;4.642;2022-09-09T01:15:17;13.88;95.82
68251;DHT22;55066;51.560;4.642;2022-09-09T01:17:54;13.79;94.78
68251;DHT22;55066;51.560;4.642;2022-09-09T01:20:25;13.77;95.35
68251;DHT22;55066;51.560;4.642;2022-09-09T01:23:48;13.79;97.11
68251;DHT22;55066;51.560;4.642;2022-09-09T01:26:23;13.79;95.06
68251;DHT22;55066;51.560;4.642;2022-09-09T01:28:51;13.77;96.70
68251;DHT22;55066;51.560;4.642;2022-09-09T01:31:52;13.68;97.48
68251;DHT22;55066;51.560;4.642;2022-09-09T01:34:19;13.65;97.24
68251;DHT22;55066;51.560;4.642;2022-09-09T01:37:02;13.60;94.61
68251;DHT22;55066;51.560;4.642;2022-09-09T01:39:30;13.65;95.47
68251;DHT22;55066;51.560;4.642;2022-09-09T01:42:03;13.68;93.49
68251;DHT22;55066;51.560;4.642;2022-09-09T01:44:30;13.61;92.96
68251;DHT22;55066;51.560;4.642;2022-09-09T01:46:56;13.64;94.15
68251;DHT22;55066;51.560;4.642;2022-09-09T01:49:22;13.79;93.53
68251;DHT22;55066;51.560;4.642;2022-09-09T01:51:54;13.65;93.46
68251;DHT22;55066;51.560;4.642;2022-09-09T01:54:29;13.60;96.64
68251;DHT22;55066;51.560;4.642;2022-09-09T01:57:11;13.51;95.75
68251;DHT22;55066;51.560;4.642;2022-09-09T02:02:29;13.60;93.81
68251;DHT22;55066;51.560;4.642;2022-09-09T02:05:21;13.43;94.34
68251;DHT22;55066;51.560;4.642;2022-09-09T02:08:00;13.46;90.31
68251;DHT22;55066;51.560;4.642;2022-09-09T02:13:14;13.54;93.82
68251;DHT22;55066;51.560;4.642;2022-09-09T02:16:17;13.54;92.11
68251;DHT22;55066;51.560;4.642;2022-09-09T02:22:19;13.53;94.12
68251;DHT22;55066;51.560;4.642;2022-09-09T02:24:46;13.54;95.26
68251;DHT22;55066;51.560;4.642;2022-09-09T02:27:18;13.46;92.97
68251;DHT22;55066;51.560;4.642;2022-09-09T02:29:45;13.47;94.16
68251;DHT22;55066;51.560;4.642;2022-09-09T02:32:19;13.50;96.69
68251;DHT22;55066;51.560;4.642;2022-09-09T02:34:53;13.44;97.55
68251;DHT22;55066;51.560;4.642;2022-09-09T02:37:22;13.56;95.63
68251;DHT22;55066;51.560;4.642;2022-09-09T02:39:52;13.53;96.59
68251;DHT22;55066;51.560;4.642;2022-09-09T02:42:20;13.46;96.07
68251;DHT22;55066;51.560;4.642;2022-09-09T02:44:45;13.58;96.45
68251;DHT22;55066;51.560;4.642;2022-09-09T02:52:50;13.44;95.30
68251;DHT22;55066;51.560;4.642;2022-09-09T02:55:44;13.54;97.20
68251;DHT22;55066;51.560;4.642;2022-09-09T02:58:14;13.48;97.53
68251;DHT22;55066;51.560;4.642;2022-09-09T03:00:43;13.33;97.18
68251;DHT22;55066;51.560;4.642;2022-09-09T03:03:09;13.37;97.59
68251;DHT22;55066;51.560;4.642;2022-09-09T03:05:36;13.51;94.45
68251;DHT22;55066;51.560;4.642;2022-09-09T03:08:02;13.48;97.33
68251;DHT22;55066;51.560;4.642;2022-09-09T03:10:28;13.42;97.37
68251;DHT22;55066;51.560;4.642;2022-09-09T03:12:53;13.47;97.57
68251;DHT22;55066;51.560;4.642;2022-09-09T03:15:20;13.46;95.75
68251;DHT22;55066;51.560;4.642;2022-09-09T03:17:46;13.53;95.87
68251;DHT22;55066;51.560;4.642;2022-09-09T03:20:12;13.74;94.83
68251;DHT22;55066;51.560;4.642;2022-09-09T03:22:37;13.46;97.39
68251;DHT22;55066;51.560;4.642;2022-09-09T03:25:03;13.42;95.10
68251;DHT22;55066;51.560;4.642;2022-09-09T03:27:29;13.47;96.32
68251;DHT22;55066;51.560;4.642;2022-09-09T03:29:55;13.36;95.15
68251;DHT22;55066;51.560;4.642;2022-09-09T03:32:23;13.58;94.16
68251;DHT22;55066;51.560;4.642;2022-09-09T03:34:52;13.39;96.50
68251;DHT22;55066;51.560;4.642;2022-09-09T03:37:19;13.29;95.85
68251;DHT22;55066;51.560;4.642;2022-09-09T03:39:45;13.29;96.57
68251;DHT22;55066;51.560;4.642;2022-09-09T03:42:15;13.36;94.51
68251;DHT22;55066;51.560;4.642;2022-09-09T03:44:44;13.42;96.89
68251;DHT22;55066;51.560;4.642;2022-09-09T03:47:12;13.47;97.40
68251;DHT22;55066;51.560;4.642;2022-09-09T03:49:38;13.54;94.59
68251;DHT22;55066;51.560;4.642;2022-09-09T03:52:04;13.56;96.84
68251;DHT22;55066;51.560;4.642;2022-09-09T03:54:30;13.78;95.73
68251;DHT22;55066;51.560;4.642;2022-09-09T03:56:55;13.58;96.16
68251;DHT22;55066;51.560;4.642;2022-09-09T03:59:21;13.53;96.58
68251;DHT22;55066;51.560;4.642;2022-09-09T04:01:48;13.57;96.48
68251;DHT22;55066;51.560;4.642;2022-09-09T04:04:13;13.71;95.95
68251;DHT22;55066;51.560;4.642;2022-09-09T04:06:39;13.65;96.18
68251;DHT22;55066;51.560;4.642;2022-09-09T04:09:06;13.70;96.97
68251;DHT22;55066;51.560;4.642;2022-09-09T04:11:32;13.63;95.93
68251;DHT22;55066;51.560;4.642;2022-09-09T04:13:59;13.68;94.02
68251;DHT22;55066;51.560;4.642;2022-09-09T04:16:24;13.77;95.30
68251;DHT22;55066;51.560;4.642;2022-09-09T04:18:49;13.73;97.52
68251;DHT22;55066;51.560;4.642;2022-09-09T04:21:16;13.73;93.97
68251;DHT22;55066;51.560;4.642;2022-09-09T04:23:42;13.68;95.27
68251;DHT22;55066;51.560;4.642;2022-09-09T04:26:08;13.74;97.62
68251;DHT22;55066;51.560;4.642;2022-09-09T04:28:35;13.67;97.48
68251;DHT22;55066;51.560;4.642;2022-09-09T04:31:14;13.73;97.64
68251;DHT22;55066;51.560;4.642;2022-09-09T04:33:40;13.74;97.47
68251;DHT22;55066;51.560;4.642;2022-09-09T04:36:06;13.70;96.73
68251;DHT22;55066;51.560;4.642;2022-09-09T04:38:32;13.65;97.76
68251;DHT22;55066;51.560;4.642;2022-09-09T04:40:57;13.74;93.31
68251;DHT22;55066;51.560;4.642;2022-09-09T04:43:24;13.81;94.80
68251;DHT22;55066;51.560;4.642;2022-09-09T04:45:51;13.85;96.45
68251;DHT22;55066;51.560;4.642;2022-09-09T04:48:20;13.68;96.80
68251;DHT22;55066;51.560;4.642;2022-09-09T04:51:05;14.04;92.14
68251;DHT22;55066;51.560;4.642;2022-09-09T04:53:32;13.81;96.68
68251;DHT22;55066;51.560;4.642;2022-09-09T04:56:08;13.79;96.60
68251;DHT22;55066;51.560;4.642;2022-09-09T04:58:39;13.85;96.60
68251;DHT22;55066;51.560;4.642;2022-09-09T05:01:10;13.58;97.12
68251;DHT22;55066;51.560;4.642;2022-09-09T05:03:38;13.63;97.00
68251;DHT22;55066;51.560;4.642;2022-09-09T05:06:09;13.58;97.29
68251;DHT22;55066;51.560;4.642;2022-09-09T05:08:36;13.67;95.97
68251;DHT22;55066;51.560;4.642;2022-09-09T05:11:03;13.77;97.44
68251;DHT22;55066;51.560;4.642;2022-09-09T05:13:29;13.81;96.93
68251;DHT22;55066;51.560;4.642;2022-09-09T05:15:57;13.77;95.60
68251;DHT22;55066;51.560;4.642;2022-09-09T05:18:22;13.86;96.65
68251;DHT22;55066;51.560;4.642;2022-09-09T05:20:49;13.84;97.61
68251;DHT22;55066;51.560;4.642;2022-09-09T05:23:16;13.67;98.06
68251;DHT22;55066;51.560;4.642;2022-09-09T05:25:42;13.70;97.83
68251;DHT22;55066;51.560;4.642;2022-09-09T05:28:08;13.81;96.96
68251;DHT22;55066;51.560;4.642;2022-09-09T05:30:34;13.86;97.93
68251;DHT22;55066;51.560;4.642;2022-09-09T05:33:02;13.95;97.42
68251;DHT22;55066;51.560;4.642;2022-09-09T05:35:27;13.94;97.68
68251;DHT22;55066;51.560;4.642;2022-09-09T05:37:53;13.91;97.44
68251;DHT22;55066;51.560;4.642;2022-09-09T05:40:18;14.01;97.56
68251;DHT22;55066;51.560;4.642;2022-09-09T05:42:44;14.02;97.54
68251;DHT22;55066;51.560;4.642;2022-09-09T05:45:09;14.18;95.98
68251;DHT22;55066;51.560;4.642;2022-09-09T05:47:36;14.15;96.38
68251;DHT22;55066;51.560;4.642;2022-09-09T05:50:03;14.34;95.73
68251;DHT22;55066;51.560;4.642;2022-09-09T05:52:29;14.47;95.75
68251;DHT22;55066;51.560;4.642;2022-09-09T05:54:56;14.47;96.72
68251;DHT22;55066;51.560;4.642;2022-09-09T05:57:22;14.60;96.18
68251;DHT22;55066;51.560;4.642;2022-09-09T05:59:49;14.70;95.83
68251;DHT22;55066;51.560;4.642;2022-09-09T06:02:15;14.76;95.75
68251;DHT22;55066;51.560;4.642;2022-09-09T06:04:40;14.76;95.95
68251;DHT22;55066;51.560;4.642;2022-09-09T06:07:06;14.85;96.15
68251;DHT22;55066;51.560;4.642;2022-09-09T06:09:32;14.83;96.48
68251;DHT22;55066;51.560;4.642;2022-09-09T06:11:57;14.88;95.23
68251;DHT22;55066;51.560;4.642;2022-09-09T06:14:24;15.02;95.09
68251;DHT22;55066;51.560;4.642;2022-09-09T06:16:51;15.04;94.80
68251;DHT22;55066;51.560;4.642;2022-09-09T06:19:20;15.09;93.44
68251;DHT22;55066;51.560;4.642;2022-09-09T06:21:46;15.16;96.02
68251;DHT22;55066;51.560;4.642;2022-09-09T06:24:13;15.28;94.97
68251;DHT22;55066;51.560;4.642;2022-09-09T06:26:43;15.26;94.78
68251;DHT22;55066;51.560;4.642;2022-09-09T06:29:16;15.40;94.79
68251;DHT22;55066;51.560;4.642;2022-09-09T06:31:41;15.44;94.08
68251;DHT22;55066;51.560;4.642;2022-09-09T06:34:13;15.43;94.10
68251;DHT22;55066;51.560;4.642;2022-09-09T06:36:41;15.53;94.38
68251;DHT22;55066;51.560;4.642;2022-09-09T06:39:08;15.59;94.67
68251;DHT22;55066;51.560;4.642;2022-09-09T06:41:36;15.63;92.37
68251;DHT22;55066;51.560;4.642;2022-09-09T13:34:35;20.01;81.65
68251;DHT22;55066;51.560;4.642;2022-09-09T13:37:03;19.82;82.08
68251;DHT22;55066;51.560;4.642;2022-09-09T13:39:32;19.69;82.86
68251;DHT22;55066;51.560;4.642;2022-09-09T13:41:58;19.44;85.09
68251;DHT22;55066;51.560;4.642;2022-09-09T13:44:31;19.32;86.20
68251;DHT22;55066;51.560;4.642;2022-09-09T13:47:17;19.48;85.02
68251;DHT22;55066;51.560;4.642;2022-09-09T13:49:44;19.68;84.62
68251;DHT22;55066;51.560;4.642;2022-09-09T13:52:15;19.80;83.29
68251;DHT22;55066;51.560;4.642;2022-09-09T13:54:42;19.54;83.93
68251;DHT22;55066;51.560;4.642;2022-09-09T13:57:18;19.61;83.87
68251;DHT22;55066;51.560;4.642;2022-09-09T13:59:45;19.73;83.47
68251;DHT22;55066;51.560;4.642;2022-09-09T14:02:11;19.57;84.73
68251;DHT22;55066;51.560;4.642;2022-09-09T14:04:37;19.58;82.89
68251;DHT22;55066;51.560;4.642;2022-09-09T14:07:03;19.27;84.55
68251;DHT22;55066;51.560;4.642;2022-09-09T14:09:28;19.44;83.18
68251;DHT22;55066;51.560;4.642;2022-09-09T14:11:53;19.20;85.07
68251;DHT22;55066;51.560;4.642;2022-09-09T14:14:20;19.32;84.32
68251;DHT22;55066;51.560;4.642;2022-09-09T14:16:46;19.14;85.69
68251;DHT22;55066;51.560;4.642;2022-09-09T14:19:12;19.07;85.25
68251;DHT22;55066;51.560;4.642;2022-09-09T14:21:37;19.10;84.93
68251;DHT22;55066;51.560;4.642;2022-09-09T14:24:03;19.21;85.00
68251;DHT22;55066;51.560;4.642;2022-09-09T14:26:28;19.14;85.60
68251;DHT22;55066;51.560;4.642;2022-09-09T14:28:55;19.23;83.61
68251;DHT22;55066;51.560;4.642;2022-09-09T14:31:22;19.25;86.14
68251;DHT22;55066;51.560;4.642;2022-09-09T14:33:48;19.82;82.89
68251;DHT22;55066;51.560;4.642;2022-09-09T14:36:13;20.10;82.52
68251;DHT22;55066;51.560;4.642;2022-09-09T14:38:39;20.18;84.56
68251;DHT22;55066;51.560;4.642;2022-09-09T14:41:12;21.69;80.99
68251;DHT22;55066;51.560;4.642;2022-09-09T14:43:39;21.98;80.20
68251;DHT22;55066;51.560;4.642;2022-09-09T14:46:09;21.75;79.63
68251;DHT22;55066;51.560;4.642;2022-09-09T14:48:35;20.85;81.02
68251;DHT22;55066;51.560;4.642;2022-09-09T14:51:15;20.43;83.22
68251;DHT22;55066;51.560;4.642;2022-09-09T14:53:41;20.13;83.62
68251;DHT22;55066;51.560;4.642;2022-09-09T14:56:13;19.97;83.49
68251;DHT22;55066;51.560;4.642;2022-09-09T14:58:39;19.79;84.00
68251;DHT22;55066;51.560;4.642;2022-09-09T15:01:06;19.52;85.04
68251;DHT22;55066;51.560;4.642;2022-09-09T15:03:34;19.62;83.62
68251;DHT22;55066;51.560;4.642;2022-09-09T15:06:13;19.63;83.82
68251;DHT22;55066;51.560;4.642;2022-09-09T15:08:47;19.57;83.28
68251;DHT22;55066;51.560;4.642;2022-09-09T15:11:15;19.59;83.87
68251;DHT22;55066;51.560;4.642;2022-09-09T15:13:42;19.66;83.22
68251;DHT22;55066;51.560;4.642;2022-09-09T15:16:16;19.75;82.76
68251;DHT22;55066;51.560;4.642;2022-09-09T15:18:42;19.61;83.88
68251;DHT22;55066;51.560;4.642;2022-09-09T15:21:12;19.72;82.26
68251;DHT22;55066;51.560;4.642;2022-09-09T15:23:38;19.78;82.29
68251;DHT22;55066;51.560;4.642;2022-09-09T15:26:04;19.58;83.89
68251;DHT22;55066;51.560;4.642;2022-09-09T15:28:32;19.61;84.05
68251;DHT22;55066;51.560;4.642;2022-09-09T15:31:09;19.61;83.67
68251;DHT22;55066;51.560;4.642;2022-09-09T15:33:36;19.65;83.16
68251;DHT22;55066;51.560;4.642;2022-09-09T15:36:17;19.58;82.63
68251;DHT22;55066;51.560;4.642;2022-09-09T15:38:42;19.76;81.86
68251;DHT22;55066;51.560;4.642;2022-09-09T15:41:09;19.54;83.61
68251;DHT22;55066;51.560;4.642;2022-09-09T15:43:35;19.35;84.91
68251;DHT22;55066;51.560;4.642;2022-09-09T15:46:21;19.59;82.79
68251;DHT22;55066;51.560;4.642;2022-09-09T15:48:49;19.57;84.03
68251;DHT22;55066;51.560;4.642;2022-09-09T15:51:16;19.52;83.74
68251;DHT22;55066;51.560;4.642;2022-09-09T15:53:41;19.68;83.80
68251;DHT22;55066;51.560;4.642;2022-09-09T15:56:07;19.72;82.39
68251;DHT22;55066;51.560;4.642;2022-09-09T15:58:33;19.80;83.39
68251;DHT22;55066;51.560;4.642;2022-09-09T16:01:07;19.72;82.84
68251;DHT22;55066;51.560;4.642;2022-09-09T16:03:34;19.89;81.35
68251;DHT22;55066;51.560;4.642;2022-09-09T16:06:00;19.86;83.08
68251;DHT22;55066;51.560;4.642;2022-09-09T16:08:31;20.21;81.18
68251;DHT22;55066;51.560;4.642;2022-09-09T16:11:04;20.21;82.73
68251;DHT22;55066;51.560;4.642;2022-09-09T16:13:33;19.92;82.58
68251;DHT22;55066;51.560;4.642;2022-09-09T16:15:58;20.05;81.61
68251;DHT22;55066;51.560;4.642;2022-09-09T16:18:24;20.26;81.86
68251;DHT22;55066;51.560;4.642;2022-09-09T16:20:55;20.28;79.40
68251;DHT22;55066;51.560;4.642;2022-09-09T16:23:21;20.43;80.74
68251;DHT22;55066;51.560;4.642;2022-09-09T16:25:56;20.83;80.04
68251;DHT22;55066;51.560;4.642;2022-09-09T16:28:33;22.69;74.91
68251;DHT22;55066;51.560;4.642;2022-09-09T16:31:11;22.96;75.19
68251;DHT22;55066;51.560;4.642;2022-09-09T16:33:43;23.74;72.40
68251;DHT22;55066;51.560;4.642;2022-09-09T16:36:13;23.75;71.90
68251;DHT22;55066;51.560;4.642;2022-09-09T16:38:39;23.23;72.76
68251;DHT22;55066;51.560;4.642;2022-09-09T16:41:06;21.98;76.16
68251;DHT22;55066;51.560;4.642;2022-09-09T16:43:35;20.85;79.24
68251;DHT22;55066;51.560;4.642;2022-09-09T16:46:26;20.51;79.89
68251;DHT22;55066;51.560;4.642;2022-09-09T16:48:53;20.21;81.06
68251;DHT22;55066;51.560;4.642;2022-09-09T16:51:23;20.06;81.00
68251;DHT22;55066;51.560;4.642;2022-09-09T16:53:49;19.93;81.39
68251;DHT22;55066;51.560;4.642;2022-09-09T16:56:23;19.80;81.56
68251;DHT22;55066;51.560;4.642;2022-09-09T16:59:00;19.58;81.94
68251;DHT22;55066;51.560;4.642;2022-09-09T17:01:30;19.62;81.80
68251;DHT22;55066;51.560;4.642;2022-09-09T17:03:59;19.42;82.21
68251;DHT22;55066;51.560;4.642;2022-09-09T17:06:26;19.28;82.52
68251;DHT22;55066;51.560;4.642;2022-09-09T17:08:56;19.02;83.10
68251;DHT22;55066;51.560;4.642;2022-09-09T17:11:22;19.17;82.23
68251;DHT22;55066;51.560;4.642;2022-09-09T17:13:49;19.03;82.78
68251;DHT22;55066;51.560;4.642;2022-09-09T17:16:16;19.06;82.51
68251;DHT22;55066;51.560;4.642;2022-09-09T17:18:42;18.73;83.85
68251;DHT22;55066;51.560;4.642;2022-09-09T17:21:11;18.62;83.06
68251;DHT22;55066;51.560;4.642;2022-09-09T17:23:38;18.56;83.61
68251;DHT22;55066;51.560;4.642;2022-09-09T17:26:05;18.35;84.65
68251;DHT22;55066;51.560;4.642;2022-09-09T17:28:33;18.38;82.90
68251;DHT22;55066;51.560;4.642;2022-09-09T17:30:59;18.04;85.39
68251;DHT22;55066;51.560;4.642;2022-09-09T17:33:30;18.03;83.83
68251;DHT22;55066;51.560;4.642;2022-09-09T17:36:07;18.11;83.30
68251;DHT22;55066;51.560;4.642;2022-09-09T17:38:33;17.79;85.25
68251;DHT22;55066;51.560;4.642;2022-09-09T17:41:03;17.83;84.68
68251;DHT22;55066;51.560;4.642;2022-09-09T17:43:29;17.76;85.30
68251;DHT22;55066;51.560;4.642;2022-09-09T17:45:54;17.73;84.44
68251;DHT22;55066;51.560;4.642;2022-09-09T17:48:20;17.87;83.55
68251;DHT22;55066;51.560;4.642;2022-09-09T17:50:45;17.70;84.72
68251;DHT22;55066;51.560;4.642;2022-09-09T17:53:12;17.65;85.06
68251;DHT22;55066;51.560;4.642;2022-09-09T17:55:51;17.63;84.20
68251;DHT22;55066;51.560;4.642;2022-09-09T17:58:23;17.45;84.83
68251;DHT22;55066;51.560;4.642;2022-09-09T18:00:53;17.42;85.99
68251;DHT22;55066;51.560;4.642;2022-09-09T18:03:26;17.14;87.08
68251;DHT22;55066;51.560;4.642;2022-09-09T18:06:03;16.94;87.13
68251;DHT22;55066;51.560;4.642;2022-09-09T18:08:36;16.85;88.33
68251;DHT22;55066;51.560;4.642;2022-09-09T18:11:08;16.80;87.77
68251;DHT22;55066;51.560;4.642;2022-09-09T18:13:38;16.76;88.06
68251;DHT22;55066;51.560;4.642;2022-09-09T18:16:09;16.64;89.20
68251;DHT22;55066;51.560;4.642;2022-09-09T18:18:47;16.67;87.53
68251;DHT22;55066;51.560;4.642;2022-09-09T18:21:20;16.76;86.80
68251;DHT22;55066;51.560;4.642;2022-09-09T18:23:50;17.04;85.01
68251;DHT22;55066;51.560;4.642;2022-09-09T18:26:22;16.85;88.01
68251;DHT22;55066;51.560;4.642;2022-09-09T18:28:53;16.73;88.66
68251;DHT22;55066;51.560;4.642;2022-09-09T18:31:21;16.73;89.38
68251;DHT22;55066;51.560;4.642;2022-09-09T18:33:50;16.81;88.39
68251;DHT22;55066;51.560;4.642;2022-09-09T18:36:19;16.79;89.58
68251;DHT22;55066;51.560;4.642;2022-09-09T18:38:45;16.84;89.09
68251;DHT22;55066;51.560;4.642;2022-09-09T18:43:43;16.94;86.56
68251;DHT22;55066;51.560;4.642;2022-09-09T18:46:10;16.95;86.90
68251;DHT22;55066;51.560;4.642;2022-09-09T18:48:35;16.83;86.96
68251;DHT22;55066;51.560;4.642;2022-09-09T18:51:06;16.70;88.82
68251;DHT22;55066;51.560;4.642;2022-09-09T18:53:32;16.73;89.87
68251;DHT22;55066;51.560;4.642;2022-09-09T18:56:03;16.64;89.45
68251;DHT22;55066;51.560;4.642;2022-09-09T18:58:30;16.72;90.42
68251;DHT22;55066;51.560;4.642;2022-09-09T19:00:57;16.74;90.11
68251;DHT22;55066;51.560;4.642;2022-09-09T19:03:24;16.67;90.48
68251;DHT22;55066;51.560;4.642;2022-09-09T19:05:50;16.66;90.85
68251;DHT22;55066;51.560;4.642;2022-09-09T19:08:17;16.60;90.39
68251;DHT22;55066;51.560;4.642;2022-09-09T19:10:47;16.52;90.44
68251;DHT22;55066;51.560;4.642;2022-09-09T19:13:13;16.55;88.77
68251;DHT22;55066;51.560;4.642;2022-09-09T19:15:39;16.49;89.90
68251;DHT22;55066;51.560;4.642;2022-09-09T19:18:05;16.29;90.73
68251;DHT22;55066;51.560;4.642;2022-09-09T19:20:30;16.33;90.78
68251;DHT22;55066;51.560;4.642;2022-09-09T19:22:56;16.33;89.91
68251;DHT22;55066;51.560;4.642;2022-09-09T19:25:21;16.29;90.57
68251;DHT22;55066;51.560;4.642;2022-09-09T19:27:47;16.26;91.27
68251;DHT22;55066;51.560;4.642;2022-09-09T19:30:13;16.38;90.64
68251;DHT22;55066;51.560;4.642;2022-09-09T19:32:38;16.29;92.21
68251;DHT22;55066;51.560;4.642;2022-09-09T19:35:05;16.21;91.01
68251;DHT22;55066;51.560;4.642;2022-09-09T19:37:31;16.26;91.87
68251;DHT22;55066;51.560;4.642;2022-09-09T19:39:57;16.21;91.25
68251;DHT22;55066;51.560;4.642;2022-09-09T19:42:23;16.07;92.61
68251;DHT22;55066;51.560;4.642;2022-09-09T19:44:48;16.07;91.40
68251;DHT22;55066;51.560;4.642;2022-09-09T19:47:18;16.11;90.84
68251;DHT22;55066;51.560;4.642;2022-09-09T19:49:44;15.96;90.01
68251;DHT22;55066;51.560;4.642;2022-09-09T19:52:10;16.12;91.43
68251;DHT22;55066;51.560;4.642;2022-09-09T19:54:36;16.19;91.17
68251;DHT22;55066;51.560;4.642;2022-09-09T19:57:02;16.18;90.42
68251;DHT22;55066;51.560;4.642;2022-09-09T19:59:27;16.25;87.78
68251;DHT22;55066;51.560;4.642;2022-09-09T20:01:53;16.28;91.17
68251;DHT22;55066;51.560;4.642;2022-09-09T20:04:21;16.21;91.69
68251;DHT22;55066;51.560;4.642;2022-09-09T20:06:46;16.22;92.36
68251;DHT22;55066;51.560;4.642;2022-09-09T20:09:14;16.12;93.01
68251;DHT22;55066;51.560;4.642;2022-09-09T20:11:40;15.97;93.60
68251;DHT22;55066;51.560;4.642;2022-09-09T20:14:07;15.97;90.48
68251;DHT22;55066;51.560;4.642;2022-09-09T20:16:33;16.00;93.55
68251;DHT22;55066;51.560;4.642;2022-09-09T20:19:01;16.02;94.35
68251;DHT22;55066;51.560;4.642;2022-09-09T20:21:32;16.00;94.36
68251;DHT22;55066;51.560;4.642;2022-09-09T20:24:00;16.02;94.91
68251;DHT22;55066;51.560;4.642;2022-09-09T20:26:27;16.00;94.68
68251;DHT22;55066;51.560;4.642;2022-09-09T20:28:55;16.09;93.10
68251;DHT22;55066;51.560;4.642;2022-09-09T20:33:46;16.15;92.65
68251;DHT22;55066;51.560;4.642;2022-09-09T20:36:14;16.08;93.85
68251;DHT22;55066;51.560;4.642;2022-09-09T20:38:46;16.02;94.72
68251;DHT22;55066;51.560;4.642;2022-09-09T20:41:13;15.94;94.48
68251;DHT22;55066;51.560;4.642;2022-09-09T20:43:49;15.96;95.08
68251;DHT22;55066;51.560;4.642;2022-09-09T20:46:34;15.96;95.22
68251;DHT22;55066;51.560;4.642;2022-09-09T20:49:01;15.90;95.40
68251;DHT22;55066;51.560;4.642;2022-09-09T20:51:27;15.86;94.73
68251;DHT22;55066;51.560;4.642;2022-09-09T20:53:58;15.93;95.07
68251;DHT22;55066;51.560;4.642;2022-09-09T20:56:29;15.91;92.58
68251;DHT22;55066;51.560;4.642;2022-09-09T20:58:56;15.96;94.85
68251;DHT22;55066;51.560;4.642;2022-09-09T21:01:22;16.04;93.83
68251;DHT22;55066;51.560;4.642;2022-09-09T21:03:48;15.98;94.77
68251;DHT22;55066;51.560;4.642;2022-09-09T21:06:13;16.01;95.32
68251;DHT22;55066;51.560;4.642;2022-09-09T21:08:39;15.97;94.48
68251;DHT22;55066;51.560;4.642;2022-09-09T21:11:06;15.96;92.90
68251;DHT22;55066;51.560;4.642;2022-09-09T21:13:34;16.02;91.66
68251;DHT22;55066;51.560;4.642;2022-09-09T21:16:02;16.07;93.67
68251;DHT22;55066;51.560;4.642;2022-09-09T21:18:28;16.00;93.29
68251;DHT22;55066;51.560;4.642;2022-09-09T21:20:55;16.02;94.39
68251;DHT22;55066;51.560;4.642;2022-09-09T21:23:21;15.91;94.54
68251;DHT22;55066;51.560;4.642;2022-09-09T21:25:47;15.90;93.99
68251;DHT22;55066;51.560;4.642;2022-09-09T21:28:13;15.80;94.94
68251;DHT22;55066;51.560;4.642;2022-09-09T21:30:40;15.86;94.69
68251;DHT22;55066;51.560;4.642;2022-09-09T21:33:09;15.78;93.93
68251;DHT22;55066;51.560;4.642;2022-09-09T21:35:36;15.71;93.65
68251;DHT22;55066;51.560;4.642;2022-09-09T21:38:04;15.77;93.26
68251;DHT22;55066;51.560;4.642;2022-09-09T21:40:30;15.66;92.42
68251;DHT22;55066;51.560;4.642;2022-09-09T21:42:55;15.80;92.90
68251;DHT22;55066;51.560;4.642;2022-09-09T21:45:21;15.73;93.10
68251;DHT22;55066;51.560;4.642;2022-09-09T21:47:47;15.69;90.92
68251;DHT22;55066;51.560;4.642;2022-09-09T21:50:13;15.81;91.05
68251;DHT22;55066;51.560;4.642;2022-09-09T21:52:40;15.76;94.31
68251;DHT22;55066;51.560;4.642;2022-09-09T21:55:06;15.73;92.10
68251;DHT22;55066;51.560;4.642;2022-09-09T21:57:31;15.67;93.27
68251;DHT22;55066;51.560;4.642;2022-09-09T21:59:56;15.61;93.63
68251;DHT22;55066;51.560;4.642;2022-09-09T22:02:22;15.43;94.19
68251;DHT22;55066;51.560;4.642;2022-09-09T22:04:47;15.49;93.52
68251;DHT22;55066;51.560;4.642;2022-09-09T22:07:13;15.44;94.77
68251;DHT22;55066;51.560;4.642;2022-09-09T22:09:40;15.40;92.38
68251;DHT22;55066;51.560;4.642;2022-09-09T22:12:06;15.40;93.17
68251;DHT22;55066;51.560;4.642;2022-09-09T22:14:31;15.47;93.06
68251;DHT22;55066;51.560;4.642;2022-09-09T22:16:57;15.39;94.83
68251;DHT22;55066;51.560;4.642;2022-09-09T22:19:23;15.40;94.23
68251;DHT22;55066;51.560;4.642;2022-09-09T22:21:49;15.36;92.46
68251;DHT22;55066;51.560;4.642;2022-09-09T22:24:14;15.39;90.86
68251;DHT22;55066;51.560;4.642;2022-09-09T22:26:40;15.50;94.19
68251;DHT22;55066;51.560;4.642;2022-09-09T22:29:06;15.47;90.01
68251;DHT22;55066;51.560;4.642;2022-09-09T22:31:34;15.52;92.86
68251;DHT22;55066;51.560;4.642;2022-09-09T22:34:00;15.50;92.66
68251;DHT22;55066;51.560;4.642;2022-09-09T22:36:25;15.36;93.39
68251;DHT22;55066;51.560;4.642;2022-09-09T22:38:51;15.29;94.68
68251;DHT22;55066;51.560;4.642;2022-09-09T22:41:17;15.32;93.95
68251;DHT22;55066;51.560;4.642;2022-09-09T22:43:43;15.31;92.93
68251;DHT22;55066;51.560;4.642;2022-09-09T22:46:10;15.29;93.45
68251;DHT22;55066;51.560;4.642;2022-09-09T22:48:36;15.29;94.21
68251;DHT22;55066;51.560;4.642;2022-09-09T22:51:07;15.25;93.76
